createdAt,value
2022-12-17T00:01:47.627Z,-2.70
2022-12-17T00:04:36.499Z,-2.70
2022-12-17T00:07:22.849Z,-2.70
2022-12-17T00:10:34.040Z,-2.70
2022-12-17T00:13:47.205Z,-2.70
2022-12-17T00:16:42.516Z,-2.70
2022-12-17T00:19:46.328Z,-2.60
2022-12-17T00:25:56.461Z,-2.50
2022-12-17T00:29:02.338Z,-2.40
2022-12-17T00:31:50.932Z,-2.30
2022-12-17T00:34:39.712Z,-2.60
2022-12-17T00:43:42.247Z,-2.60
2022-12-17T00:46:50.200Z,-2.50
2022-12-17T00:52:55.676Z,-2.70
2022-12-17T00:55:42.787Z,-2.60
2022-12-17T00:58:29.260Z,-2.50
2022-12-17T01:01:23.370Z,-2.60
2022-12-17T01:04:09.652Z,-2.70
2022-12-17T01:10:07.354Z,-2.60
2022-12-17T01:12:53.157Z,-2.70
2022-12-17T01:15:49.681Z,-2.60
2022-12-17T01:18:38.834Z,-2.60
2022-12-17T01:21:29.655Z,-2.60
2022-12-17T01:24:31.035Z,-2.50
2022-12-17T01:27:33.638Z,-2.60
2022-12-17T01:30:28.158Z,-2.50
2022-12-17T01:36:26.987Z,-2.50
2022-12-17T01:39:16.586Z,-2.70
2022-12-17T01:42:03.426Z,-2.60
2022-12-17T01:45:13.643Z,-2.70
2022-12-17T01:48:12.294Z,-2.80
2022-12-17T01:54:04.982Z,-2.80
2022-12-17T01:56:54.028Z,-2.70
2022-12-17T02:00:02.342Z,-2.60
2022-12-17T02:05:54.265Z,-2.60
2022-12-17T02:08:44.559Z,-2.60
2022-12-17T02:11:52.919Z,-2.60
2022-12-17T02:17:52.255Z,-2.60
2022-12-17T02:20:58.627Z,-2.50
2022-12-17T02:23:53.043Z,-2.50
2022-12-17T02:30:08.311Z,-2.50
2022-12-17T02:32:54.924Z,-2.50
2022-12-17T02:38:56.812Z,-2.60
2022-12-17T02:44:58.921Z,-2.50
2022-12-17T02:47:48.540Z,-2.50
2022-12-17T02:50:43.201Z,-2.50
2022-12-17T02:53:32.254Z,-2.50
2022-12-17T02:56:24.866Z,-2.50
2022-12-17T03:02:16.905Z,-2.30
2022-12-17T03:05:35.628Z,-2.50
2022-12-17T03:08:27.738Z,-2.40
2022-12-17T03:14:14.760Z,-2.50
2022-12-17T03:17:02.149Z,-2.30
2022-12-17T03:19:52.730Z,-2.40
2022-12-17T03:29:01.036Z,-2.30
2022-12-17T03:31:56.557Z,-2.50
2022-12-17T03:34:44.999Z,-2.50
2022-12-17T03:37:43.556Z,-2.50
2022-12-17T03:43:32.260Z,-2.50
2022-12-17T03:46:27.568Z,-2.50
2022-12-17T03:49:15.379Z,-2.40
2022-12-17T03:55:21.813Z,-2.30
2022-12-17T03:58:09.725Z,-2.30
2022-12-17T04:00:58.071Z,-2.30
2022-12-17T04:06:45.328Z,-2.30
2022-12-17T04:09:39.132Z,-2.20
2022-12-17T04:12:30.610Z,-2.30
2022-12-17T04:15:18.398Z,-2.30
2022-12-17T04:18:14.493Z,-2.30
2022-12-17T04:21:00.858Z,-2.30
2022-12-17T04:23:53.661Z,-2.40
2022-12-17T04:26:46.898Z,-2.30
2022-12-17T04:30:07.474Z,-2.30
2022-12-17T04:33:06.389Z,-2.20
2022-12-17T04:35:55.138Z,-2.20
2022-12-17T04:41:56.310Z,-2.30
2022-12-17T04:44:42.712Z,-2.20
2022-12-17T04:47:47.182Z,-2.20
2022-12-17T04:50:47.989Z,-2.20
2022-12-17T04:53:37.311Z,-2.20
2022-12-17T04:56:24.525Z,-2.20
2022-12-17T04:59:25.408Z,-2.10
2022-12-17T05:02:11.166Z,-2.10
2022-12-17T05:04:57.522Z,-2.20
2022-12-17T05:08:05.304Z,-2.30
2022-12-17T05:10:54.159Z,-2.20
2022-12-17T05:13:43.648Z,-2.20
2022-12-17T05:16:33.922Z,-2.20
2022-12-17T05:19:20.296Z,-2.10
2022-12-17T05:22:12.257Z,-2.10
2022-12-17T05:25:01.349Z,-2.10
2022-12-17T05:27:49.582Z,-2.10
2022-12-17T05:30:35.721Z,-2.10
2022-12-17T05:33:24.827Z,-2.10
2022-12-17T05:36:11.791Z,-2.10
2022-12-17T05:38:59.756Z,-2.10
2022-12-17T05:42:03.444Z,-2.10
2022-12-17T05:44:51.278Z,-2.00
2022-12-17T05:47:37.583Z,-2.10
2022-12-17T05:50:25.515Z,-2.10
2022-12-17T05:53:24.526Z,-2.00
2022-12-17T05:56:11.518Z,-1.90
2022-12-17T05:58:57.610Z,-2.00
2022-12-17T06:01:51.168Z,-2.00
2022-12-17T06:04:49.560Z,-2.10
2022-12-17T06:07:38.508Z,-2.20
2022-12-17T06:10:25.095Z,-2.20
2022-12-17T06:13:14.639Z,-2.10
2022-12-17T06:16:02.916Z,-2.10
2022-12-17T06:18:51.609Z,-2.10
2022-12-17T06:21:37.770Z,-2.00
2022-12-17T06:27:27.169Z,-2.10
2022-12-17T06:30:19.298Z,-2.00
2022-12-17T06:33:09.739Z,-2.10
2022-12-17T06:36:22.100Z,-2.00
2022-12-17T06:39:13.822Z,-1.90
2022-12-17T06:42:04.545Z,-1.90
2022-12-17T06:44:56.898Z,-2.00
2022-12-17T06:47:53.085Z,-2.00
2022-12-17T06:50:43.259Z,-2.00
2022-12-17T06:53:45.608Z,-2.00
2022-12-17T06:59:41.218Z,-1.90
2022-12-17T07:02:30.564Z,-1.90
2022-12-17T07:05:19.380Z,-1.90
2022-12-17T07:08:05.677Z,-1.90
2022-12-17T07:10:52.489Z,-1.80
2022-12-17T07:13:42.962Z,-1.90
2022-12-17T07:16:31.007Z,-1.90
2022-12-17T07:19:33.196Z,-1.90
2022-12-17T07:22:21.705Z,-1.80
2022-12-17T07:28:14.767Z,-1.90
2022-12-17T07:31:03.600Z,-1.90
2022-12-17T07:34:00.042Z,-2.00
2022-12-17T07:36:46.022Z,-1.90
2022-12-17T07:39:32.619Z,-1.90
2022-12-17T07:42:19.918Z,-1.90
2022-12-17T07:45:06.994Z,-1.80
2022-12-17T07:48:12.510Z,-1.80
2022-12-17T07:51:02.808Z,-1.80
2022-12-17T07:53:54.775Z,-1.70
2022-12-17T07:56:51.562Z,-1.80
2022-12-17T07:59:41.333Z,-1.90
2022-12-17T08:02:32.207Z,-1.80
2022-12-17T08:11:34.212Z,-1.80
2022-12-17T08:14:25.997Z,-1.70
2022-12-17T08:17:14.216Z,-1.80
2022-12-17T08:20:04.258Z,-1.80
2022-12-17T08:22:56.035Z,-1.80
2022-12-17T08:25:45.208Z,-1.80
2022-12-17T08:31:41.818Z,-1.80
2022-12-17T08:34:27.818Z,-1.80
2022-12-17T08:37:22.613Z,-1.90
2022-12-17T08:40:17.721Z,-1.80
2022-12-17T08:43:15.278Z,-1.70
2022-12-17T08:49:15.529Z,-1.60
2022-12-17T08:52:11.638Z,-1.70
2022-12-17T08:54:59.772Z,-1.80
2022-12-17T08:57:54.712Z,-1.90
2022-12-17T09:00:46.503Z,-1.80
2022-12-17T09:03:36.816Z,-1.90
2022-12-17T09:06:41.479Z,-1.90
2022-12-17T09:09:33.269Z,-2.00
2022-12-17T09:12:25.986Z,-2.10
2022-12-17T09:15:24.686Z,-2.10
2022-12-17T09:18:10.565Z,-2.10
2022-12-17T09:20:56.865Z,-2.00
2022-12-17T09:26:56.910Z,-2.10
2022-12-17T09:29:50.538Z,-2.00
2022-12-17T09:32:38.951Z,-1.80
2022-12-17T09:35:26.801Z,-1.60
2022-12-17T09:38:17.982Z,-1.60
2022-12-17T09:41:06.315Z,-1.60
2022-12-17T09:44:06.406Z,-1.60
2022-12-17T09:47:03.576Z,-1.60
2022-12-17T09:49:54.214Z,-1.50
2022-12-17T09:52:43.592Z,-1.40
2022-12-17T09:55:41.513Z,-1.50
2022-12-17T09:58:44.118Z,-1.40
2022-12-17T10:01:38.419Z,-1.30
2022-12-17T10:04:27.484Z,-1.30
2022-12-17T10:07:28.929Z,-1.30
2022-12-17T10:10:25.754Z,-1.30
2022-12-17T10:13:15.412Z,-1.20
2022-12-17T10:16:07.836Z,-1.30
2022-12-17T10:18:54.777Z,-1.40
2022-12-17T10:22:09.220Z,-1.20
2022-12-17T10:25:03.921Z,-1.00
2022-12-17T10:28:00.120Z,-1.10
2022-12-17T10:33:59.883Z,-1.20
2022-12-17T10:36:48.870Z,-1.20
2022-12-17T10:39:36.112Z,-1.30
2022-12-17T10:45:37.512Z,-1.20
2022-12-17T10:48:47.419Z,-1.10
2022-12-17T10:51:40.953Z,-1.10
2022-12-17T10:54:30.006Z,-1.10
2022-12-17T10:57:18.597Z,-1.00
2022-12-17T11:00:05.271Z,-1.20
2022-12-17T11:03:12.274Z,-1.10
2022-12-17T11:06:03.343Z,-1.10
2022-12-17T11:08:52.228Z,-1.10
2022-12-17T11:11:39.141Z,-1.00
2022-12-17T11:14:32.482Z,-1.20
2022-12-17T11:17:33.128Z,-1.10
2022-12-17T11:20:36.554Z,-1.00
2022-12-17T11:23:50.241Z,-1.10
2022-12-17T11:26:38.211Z,-1.10
2022-12-17T11:29:26.984Z,-1.20
2022-12-17T11:32:19.732Z,-1.10
2022-12-17T11:35:28.879Z,-1.00
2022-12-17T11:38:19.705Z,-1.00
2022-12-17T11:41:22.635Z,-0.90
2022-12-17T11:44:19.773Z,-0.90
2022-12-17T11:47:09.262Z,-0.80
2022-12-17T11:50:04.236Z,-0.90
2022-12-17T11:52:56.041Z,-0.90
2022-12-17T11:59:00.409Z,-0.90
2022-12-17T12:01:50.907Z,-0.90
2022-12-17T12:04:45.844Z,-0.70
2022-12-17T12:07:35.700Z,-0.90
2022-12-17T12:10:22.699Z,-0.90
2022-12-17T12:13:14.701Z,-1.00
2022-12-17T12:16:07.769Z,-0.90
2022-12-17T12:18:59.036Z,-1.10
2022-12-17T12:21:52.748Z,-1.20
2022-12-17T12:24:45.647Z,-1.30
2022-12-17T12:27:42.367Z,-1.20
2022-12-17T12:30:30.209Z,-1.20
2022-12-17T12:33:23.190Z,-1.20
2022-12-17T12:36:10.819Z,-1.30
2022-12-17T12:38:59.262Z,-1.20
2022-12-17T12:41:48.640Z,-1.20
2022-12-17T12:44:46.942Z,-1.10
2022-12-17T12:47:38.939Z,-1.20
2022-12-17T12:50:31.498Z,-1.00
2022-12-17T12:53:17.401Z,-0.90
2022-12-17T12:56:03.352Z,-0.90
2022-12-17T12:58:50.581Z,-1.10
2022-12-17T13:01:37.020Z,-1.20
2022-12-17T13:04:34.460Z,-1.30
2022-12-17T13:07:05.912Z,-1.30
2022-12-17T13:09:39.104Z,-1.20
2022-12-17T13:12:17.188Z,-1.20
2022-12-17T13:14:52.831Z,-1.10
2022-12-17T13:17:32.571Z,-1.20
2022-12-17T13:20:02.082Z,-1.30
2022-12-17T13:22:33.876Z,-1.40
2022-12-17T13:25:17.045Z,-1.50
2022-12-17T13:27:45.968Z,-1.40
2022-12-17T13:30:24.730Z,-1.30
2022-12-17T13:32:57.091Z,-1.30
2022-12-17T13:35:28.549Z,-1.30
2022-12-17T13:38:01.219Z,-1.30
2022-12-17T13:40:35.037Z,-1.30
2022-12-17T13:43:04.442Z,-1.30
2022-12-17T13:45:33.829Z,-1.30
2022-12-17T13:48:02.112Z,-1.30
2022-12-17T13:50:35.564Z,-1.50
2022-12-17T13:53:13.076Z,-1.40
2022-12-17T13:55:41.391Z,-1.40
2022-12-17T13:58:21.537Z,-1.30
2022-12-17T14:00:50.153Z,-1.40
2022-12-17T14:03:37.028Z,-1.30
2022-12-17T14:06:10.372Z,-1.30
2022-12-17T14:08:41.309Z,-1.40
2022-12-17T14:11:26.968Z,-1.50
2022-12-17T14:13:55.069Z,-1.50
2022-12-17T14:16:23.817Z,-1.60
2022-12-17T14:18:53.143Z,-1.40
2022-12-17T14:21:26.239Z,-1.40
2022-12-17T14:23:56.566Z,-1.40
2022-12-17T14:26:27.050Z,-1.40
2022-12-17T14:28:56.252Z,-1.20
2022-12-17T14:31:28.837Z,-1.20
2022-12-17T14:34:08.166Z,-1.20
2022-12-17T14:36:37.474Z,-1.30
2022-12-17T14:39:11.575Z,-1.40
2022-12-17T14:42:00.281Z,-1.30
2022-12-17T14:44:29.423Z,-1.50
2022-12-17T14:47:08.266Z,-1.50
2022-12-17T14:49:36.752Z,-1.50
2022-12-17T14:52:13.330Z,-1.40
2022-12-17T14:54:47.674Z,-1.40
2022-12-17T14:57:21.405Z,-1.40
2022-12-17T14:59:50.566Z,-1.40
2022-12-17T15:02:23.952Z,-1.40
2022-12-17T15:04:52.829Z,-1.40
2022-12-17T15:07:24.124Z,-1.30
2022-12-17T15:09:54.180Z,-1.40
2022-12-17T15:12:22.786Z,-1.40
2022-12-17T15:14:51.594Z,-1.50
2022-12-17T15:17:19.619Z,-1.60
2022-12-17T15:19:51.436Z,-1.70
2022-12-17T15:22:24.195Z,-1.70
2022-12-17T15:24:54.983Z,-1.80
2022-12-17T15:27:23.135Z,-1.40
2022-12-17T15:29:51.364Z,-1.80
2022-12-17T15:32:19.934Z,-1.90
2022-12-17T15:34:48.210Z,-1.70
2022-12-17T15:37:19.834Z,-1.80
2022-12-17T15:39:49.782Z,-1.60
2022-12-17T15:42:36.640Z,-1.60
2022-12-17T15:45:04.876Z,-1.60
2022-12-17T15:47:33.140Z,-1.50
2022-12-17T15:50:01.576Z,-1.50
2022-12-17T15:52:29.670Z,-1.60
2022-12-17T15:54:57.801Z,-1.50
2022-12-17T15:57:27.369Z,-1.50
2022-12-17T15:59:55.910Z,-1.60
2022-12-17T16:02:24.082Z,-1.70
2022-12-17T16:04:52.824Z,-1.80
2022-12-17T16:07:20.961Z,-1.80
2022-12-17T16:09:49.067Z,-1.80
2022-12-17T16:12:17.668Z,-1.70
2022-12-17T16:14:47.794Z,-1.80
2022-12-17T16:17:16.194Z,-1.80
2022-12-17T16:19:44.479Z,-1.90
2022-12-17T16:22:12.492Z,-2.00
2022-12-17T16:24:43.465Z,-2.00
2022-12-17T16:27:11.649Z,-2.10
2022-12-17T16:29:40.070Z,-2.10
2022-12-17T16:32:10.022Z,-2.20
2022-12-17T16:34:38.239Z,-2.30
2022-12-17T16:37:06.985Z,-2.30
2022-12-17T16:39:35.341Z,-1.90
2022-12-17T16:42:03.630Z,-2.20
2022-12-17T16:44:32.331Z,-2.40
2022-12-17T16:47:00.731Z,-2.20
2022-12-17T16:49:30.486Z,-2.20
2022-12-17T16:51:59.597Z,-2.30
2022-12-17T16:54:28.718Z,-2.40
2022-12-17T16:56:56.959Z,-2.40
2022-12-17T16:59:25.510Z,-2.50
2022-12-17T17:01:53.843Z,-2.50
2022-12-17T17:04:23.364Z,-2.50
2022-12-17T17:06:54.331Z,-2.50
2022-12-17T17:09:23.261Z,-2.60
2022-12-17T17:11:52.557Z,-2.70
2022-12-17T17:14:21.047Z,-2.60
2022-12-17T17:16:49.421Z,-2.80
2022-12-17T17:19:18.558Z,-2.70
2022-12-17T17:21:50.067Z,-2.70
2022-12-17T17:24:22.139Z,-2.80
2022-12-17T17:26:51.211Z,-2.70
2022-12-17T17:29:19.735Z,-3.00
2022-12-17T17:34:36.273Z,-2.90
2022-12-17T17:37:04.419Z,-2.90
2022-12-17T17:39:34.489Z,-3.00
2022-12-17T17:42:02.906Z,-3.00
2022-12-17T17:44:31.130Z,-3.00
2022-12-17T17:46:59.417Z,-3.10
2022-12-17T17:49:27.870Z,-3.20
2022-12-17T17:52:12.014Z,-3.20
2022-12-17T17:54:42.488Z,-3.30
2022-12-17T17:57:10.919Z,-3.30
2022-12-17T17:59:40.507Z,-3.40
2022-12-17T18:02:11.069Z,-3.30
2022-12-17T18:04:41.109Z,-3.30
2022-12-17T18:07:25.263Z,-3.30
2022-12-17T18:09:55.971Z,-3.30
2022-12-17T18:12:41.867Z,-3.20
2022-12-17T18:15:15.339Z,-3.20
2022-12-17T18:17:44.839Z,-3.30
2022-12-17T18:20:13.326Z,-3.40
2022-12-17T18:22:41.400Z,-3.40
2022-12-17T18:25:10.982Z,-3.40
2022-12-17T18:27:39.094Z,-3.40
2022-12-17T18:30:07.600Z,-3.40
2022-12-17T18:32:35.616Z,-3.40
2022-12-17T18:35:03.850Z,-3.50
2022-12-17T18:37:31.966Z,-3.50
2022-12-17T18:40:00.073Z,-3.40
2022-12-17T18:42:47.356Z,-3.40
2022-12-17T18:45:15.432Z,-3.30
2022-12-17T18:47:44.833Z,-3.40
2022-12-17T18:50:13.567Z,-3.40
2022-12-17T18:52:41.911Z,-3.50
2022-12-17T18:55:09.938Z,-3.50
2022-12-17T18:57:39.528Z,-3.50
2022-12-17T19:00:08.237Z,-3.60
2022-12-17T19:02:36.327Z,-3.60
2022-12-17T19:05:04.788Z,-3.70
2022-12-17T19:07:32.905Z,-3.60
2022-12-17T19:10:01.031Z,-3.60
2022-12-17T19:12:38.445Z,-3.60
2022-12-17T19:15:08.974Z,-3.40
2022-12-17T19:17:43.531Z,-3.60
2022-12-17T19:20:12.534Z,-3.70
2022-12-17T19:22:40.626Z,-3.70
2022-12-17T19:25:09.406Z,-3.70
2022-12-17T19:27:38.555Z,-3.90
2022-12-17T19:30:16.701Z,-3.70
2022-12-17T19:32:56.918Z,-4.00
2022-12-17T19:38:20.506Z,-3.80
2022-12-17T19:41:18.689Z,-3.50
2022-12-17T19:43:48.509Z,-3.80
2022-12-17T19:46:36.175Z,-3.90
2022-12-17T19:49:24.632Z,-3.80
2022-12-17T19:51:55.920Z,-3.80
2022-12-17T19:54:45.523Z,-3.90
2022-12-17T19:57:15.722Z,-3.90
2022-12-17T19:59:47.043Z,-3.90
2022-12-17T20:03:04.801Z,-4.00
2022-12-17T20:05:53.981Z,-4.00
2022-12-17T20:08:29.767Z,-4.00
2022-12-17T20:11:30.866Z,-4.00
2022-12-17T20:16:49.001Z,-4.00
2022-12-17T20:19:33.291Z,-3.80
2022-12-17T20:22:15.400Z,-3.80
2022-12-17T20:27:58.995Z,-3.90
2022-12-17T20:30:44.423Z,-4.00
2022-12-17T20:33:27.041Z,-4.00
2022-12-17T20:36:09.864Z,-4.00
2022-12-17T20:38:44.189Z,-4.00
2022-12-17T20:41:30.883Z,-4.20
2022-12-17T20:44:06.583Z,-4.10
2022-12-17T20:46:48.107Z,-4.10
2022-12-17T20:49:21.313Z,-4.30
2022-12-17T20:52:05.740Z,-4.30
2022-12-17T20:55:04.299Z,-4.40
2022-12-17T21:00:40.127Z,-4.50
2022-12-17T21:03:17.634Z,-4.50
2022-12-17T21:05:56.196Z,-4.50
2022-12-17T21:08:36.227Z,-4.50
2022-12-17T21:11:12.192Z,-4.60
2022-12-17T21:13:47.601Z,-4.60
2022-12-17T21:16:30.443Z,-4.60
2022-12-17T21:19:13.825Z,-4.60
2022-12-17T21:22:10.642Z,-4.70
2022-12-17T21:24:58.730Z,-4.60
2022-12-17T21:27:40.913Z,-4.70
2022-12-17T21:30:21.843Z,-4.50
2022-12-17T21:32:52.065Z,-4.90
2022-12-17T21:35:29.148Z,-5.00
2022-12-17T21:38:05.209Z,-5.00
2022-12-17T21:40:44.527Z,-5.00
2022-12-17T21:43:16.698Z,-4.30
2022-12-17T21:46:11.136Z,-4.90
2022-12-17T21:51:45.455Z,-4.90
2022-12-17T21:54:20.010Z,-5.00
2022-12-17T21:57:26.940Z,-5.00
2022-12-17T22:03:31.352Z,-4.90
2022-12-17T22:06:10.655Z,-4.80
2022-12-17T22:08:52.247Z,-4.90
2022-12-17T22:14:25.720Z,-5.00
2022-12-17T22:16:57.133Z,-4.70
2022-12-17T22:19:32.905Z,-5.00
2022-12-17T22:22:13.901Z,-4.80
2022-12-17T22:24:45.005Z,-4.90
2022-12-17T22:27:48.565Z,-5.00
2022-12-17T22:30:57.994Z,-4.90
2022-12-17T22:34:14.188Z,-4.90
2022-12-17T22:39:18.463Z,-4.80
2022-12-17T22:44:22.559Z,-4.80
2022-12-17T22:44:36.240Z,-4.90
2022-12-17T22:45:32.600Z,-4.80
2022-12-17T22:48:12.099Z,-4.90
2022-12-17T22:51:02.462Z,-5.00
2022-12-17T22:56:52.421Z,-4.80
2022-12-17T22:59:40.090Z,-4.80
2022-12-17T23:02:11.387Z,-4.80
2022-12-17T23:04:43.403Z,-4.90
2022-12-17T23:07:19.531Z,-4.80
2022-12-17T23:09:56.306Z,-5.00
2022-12-17T23:12:41.814Z,-4.90
2022-12-17T23:15:15.599Z,-5.00
2022-12-17T23:17:56.901Z,-5.00
2022-12-17T23:20:28.441Z,-5.00
2022-12-17T23:22:59.833Z,-5.00
2022-12-17T23:25:38.405Z,-5.00
2022-12-17T23:28:11.417Z,-5.10
2022-12-17T23:33:35.889Z,-5.10
2022-12-17T23:36:11.508Z,-5.10
2022-12-17T23:38:50.719Z,-4.90
2022-12-17T23:41:35.912Z,-5.10
2022-12-17T23:44:41.629Z,-5.00
2022-12-17T23:52:52.188Z,-5.20
2022-12-17T23:58:32.661Z,-5.20
